createdAt,value
2023-01-05T00:01:53.383Z,3.27
2023-01-05T00:04:20.621Z,2.92
2023-01-05T00:06:48.101Z,3.73
2023-01-05T00:09:18.757Z,3.37
2023-01-05T00:12:04.661Z,2.85
2023-01-05T00:14:52.705Z,2.90
2023-01-05T00:17:42.887Z,3.10
2023-01-05T00:20:39.625Z,3.28
2023-01-05T00:23:08.613Z,2.72
2023-01-05T00:25:41.156Z,2.95
2023-01-05T00:28:08.226Z,3.30
2023-01-05T00:30:44.776Z,2.83
2023-01-05T00:33:17.644Z,3.53
2023-01-05T00:35:44.902Z,3.60
2023-01-05T00:38:11.970Z,3.60
2023-01-05T00:40:39.184Z,3.03
2023-01-05T00:43:06.447Z,3.50
2023-01-05T00:45:33.540Z,4.07
2023-01-05T00:48:00.671Z,3.23
2023-01-05T00:50:27.892Z,2.75
2023-01-05T00:52:54.951Z,3.65
2023-01-05T00:55:21.935Z,3.77
2023-01-05T00:57:49.023Z,3.05
2023-01-05T01:00:19.674Z,3.15
2023-01-05T01:02:47.476Z,3.15
2023-01-05T01:05:14.780Z,2.97
2023-01-05T01:07:41.884Z,3.10
2023-01-05T01:10:10.767Z,3.42
2023-01-05T01:12:37.931Z,3.13
2023-01-05T01:15:05.921Z,3.67
2023-01-05T01:17:33.450Z,2.88
2023-01-05T01:20:00.644Z,2.90
2023-01-05T01:22:27.699Z,3.55
2023-01-05T01:24:54.693Z,3.90
2023-01-05T01:27:21.728Z,3.25
2023-01-05T01:29:48.848Z,3.30
2023-01-05T01:32:15.823Z,3.30
2023-01-05T01:34:45.816Z,4.10
2023-01-05T01:37:13.173Z,3.57
2023-01-05T01:39:40.145Z,3.50
2023-01-05T01:42:14.874Z,4.03
2023-01-05T01:45:05.788Z,3.85
2023-01-05T01:47:38.162Z,3.58
2023-01-05T01:50:32.089Z,2.83
2023-01-05T01:53:10.819Z,3.15
2023-01-05T01:55:39.321Z,3.30
2023-01-05T01:58:11.600Z,2.80
2023-01-05T02:00:41.089Z,3.50
2023-01-05T02:03:08.591Z,3.55
2023-01-05T02:05:37.981Z,3.38
2023-01-05T02:08:13.987Z,3.25
2023-01-05T02:11:01.019Z,3.50
2023-01-05T02:13:38.145Z,2.97
2023-01-05T02:16:26.628Z,3.00
2023-01-05T02:19:21.198Z,3.17
2023-01-05T02:22:18.840Z,3.20
2023-01-05T02:25:12.902Z,3.22
2023-01-05T02:28:39.573Z,2.50
2023-01-05T02:31:25.027Z,3.95
2023-01-05T02:34:10.077Z,3.67
2023-01-05T02:36:49.521Z,2.75
2023-01-05T02:39:31.288Z,2.90
2023-01-05T02:42:34.594Z,2.73
2023-01-05T02:45:07.954Z,2.93
2023-01-05T02:47:43.153Z,3.10
2023-01-05T02:50:20.963Z,3.10
2023-01-05T02:53:08.853Z,2.95
2023-01-05T02:56:02.434Z,2.95
2023-01-05T02:58:43.868Z,2.97
2023-01-05T03:01:13.512Z,3.25
2023-01-05T03:03:54.908Z,2.53
2023-01-05T03:06:56.635Z,3.33
2023-01-05T03:09:28.029Z,2.70
2023-01-05T03:12:40.839Z,2.80
2023-01-05T03:15:28.327Z,3.30
2023-01-05T03:18:12.366Z,2.90
2023-01-05T03:20:44.166Z,3.00
2023-01-05T03:23:32.547Z,2.72
2023-01-05T03:26:19.053Z,3.03
2023-01-05T03:29:20.551Z,3.50
2023-01-05T03:32:21.250Z,2.92
2023-01-05T03:35:21.152Z,2.92
2023-01-05T03:38:32.180Z,3.55
2023-01-05T03:41:03.875Z,3.15
2023-01-05T03:43:37.319Z,2.95
2023-01-05T03:46:16.113Z,2.80
2023-01-05T03:48:43.402Z,2.50
2023-01-05T03:51:10.631Z,3.53
2023-01-05T03:53:37.770Z,3.27
2023-01-05T03:56:05.260Z,2.70
2023-01-05T03:58:32.203Z,3.35
2023-01-05T04:00:59.183Z,3.65
2023-01-05T04:03:31.319Z,3.55
2023-01-05T04:05:59.033Z,3.27
2023-01-05T04:08:25.978Z,3.47
2023-01-05T04:10:53.765Z,2.75
2023-01-05T04:13:21.387Z,3.15
2023-01-05T04:15:48.424Z,3.63
2023-01-05T04:18:15.447Z,3.67
2023-01-05T04:20:42.500Z,3.87
2023-01-05T04:23:09.496Z,3.50
2023-01-05T04:25:36.591Z,3.58
2023-01-05T04:28:03.708Z,3.05
2023-01-05T04:30:30.751Z,3.55
2023-01-05T04:32:57.715Z,3.80
2023-01-05T04:35:24.677Z,3.30
2023-01-05T04:37:51.688Z,3.35
2023-01-05T04:40:18.697Z,3.72
2023-01-05T04:42:47.643Z,4.10
2023-01-05T04:45:14.734Z,3.38
2023-01-05T04:47:41.688Z,3.25
2023-01-05T04:50:09.663Z,3.35
2023-01-05T04:52:36.627Z,3.63
2023-01-05T04:55:04.460Z,3.10
2023-01-05T04:57:31.533Z,3.58
2023-01-05T04:59:58.502Z,3.42
2023-01-05T05:02:25.675Z,3.25
2023-01-05T05:04:52.841Z,3.45
2023-01-05T05:07:19.883Z,3.85
2023-01-05T05:09:46.987Z,3.47
2023-01-05T05:12:14.495Z,3.42
2023-01-05T05:14:41.905Z,3.13
2023-01-05T05:17:08.900Z,4.10
2023-01-05T05:19:35.907Z,3.25
2023-01-05T05:22:03.924Z,4.05
2023-01-05T05:24:31.073Z,3.87
2023-01-05T05:26:58.095Z,3.83
2023-01-05T05:29:25.459Z,3.95
2023-01-05T05:31:53.201Z,3.70
2023-01-05T05:34:20.238Z,3.70
2023-01-05T05:36:47.323Z,3.83
2023-01-05T05:39:15.905Z,4.00
2023-01-05T05:41:43.124Z,3.83
2023-01-05T05:44:10.168Z,4.03
2023-01-05T05:46:37.423Z,3.72
2023-01-05T05:49:04.883Z,3.53
2023-01-05T05:51:32.883Z,4.00
2023-01-05T05:54:00.036Z,3.90
2023-01-05T05:56:26.994Z,3.63
2023-01-05T05:58:59.145Z,4.18
2023-01-05T06:01:28.653Z,4.00
2023-01-05T06:03:55.844Z,3.58
2023-01-05T06:06:22.830Z,3.85
2023-01-05T06:08:49.854Z,4.32
2023-01-05T06:11:16.804Z,3.30
2023-01-05T06:13:43.973Z,4.00
2023-01-05T06:16:11.105Z,4.55
2023-01-05T06:18:38.096Z,3.90
2023-01-05T06:21:05.418Z,4.07
2023-01-05T06:23:32.439Z,3.83
2023-01-05T06:25:59.411Z,3.67
2023-01-05T06:28:26.525Z,4.72
2023-01-05T06:30:53.544Z,4.43
2023-01-05T06:33:20.505Z,4.00
2023-01-05T06:35:47.500Z,4.00
2023-01-05T06:38:16.118Z,4.45
2023-01-05T06:40:44.599Z,3.75
2023-01-05T06:43:12.712Z,3.53
2023-01-05T06:45:39.922Z,4.80
2023-01-05T06:48:07.113Z,3.88
2023-01-05T06:50:34.481Z,2.97
2023-01-05T06:53:01.609Z,3.63
2023-01-05T06:55:28.692Z,3.42
2023-01-05T06:58:00.815Z,3.70
2023-01-05T07:00:29.343Z,3.37
2023-01-05T07:02:56.465Z,4.03
2023-01-05T07:05:24.617Z,3.00
2023-01-05T07:07:51.872Z,4.20
2023-01-05T07:10:18.939Z,3.92
2023-01-05T07:12:46.002Z,3.42
2023-01-05T07:15:12.985Z,3.38
2023-01-05T07:17:39.941Z,3.47
2023-01-05T07:20:08.064Z,2.53
2023-01-05T07:22:35.205Z,2.80
2023-01-05T07:25:02.175Z,3.00
2023-01-05T07:27:29.201Z,3.67
2023-01-05T07:29:56.185Z,2.97
2023-01-05T07:32:23.327Z,2.95
2023-01-05T07:34:55.304Z,3.75
2023-01-05T07:37:25.240Z,2.88
2023-01-05T07:39:53.121Z,2.67
2023-01-05T07:42:20.203Z,2.38
2023-01-05T07:44:47.221Z,2.80
2023-01-05T07:47:14.212Z,3.38
2023-01-05T07:49:41.157Z,2.78
2023-01-05T07:52:08.081Z,2.78
2023-01-05T07:54:35.061Z,3.80
2023-01-05T07:57:02.129Z,3.13
2023-01-05T07:59:29.076Z,2.57
2023-01-05T08:01:56.128Z,2.17
2023-01-05T08:04:23.710Z,3.15
2023-01-05T08:06:52.532Z,1.98
2023-01-05T08:09:38.197Z,2.17
2023-01-05T08:12:05.419Z,2.27
2023-01-05T08:14:32.381Z,2.38
2023-01-05T08:16:59.511Z,3.45
2023-01-05T08:19:26.609Z,3.23
2023-01-05T08:21:53.580Z,3.33
2023-01-05T08:24:20.530Z,3.17
2023-01-05T08:26:51.331Z,2.47
2023-01-05T08:29:18.733Z,2.55
2023-01-05T08:31:45.768Z,2.63
2023-01-05T08:34:13.565Z,1.98
2023-01-05T08:36:40.702Z,2.50
2023-01-05T08:39:11.296Z,1.65
2023-01-05T08:41:40.577Z,2.63
2023-01-05T08:44:14.424Z,3.10
2023-01-05T08:46:41.580Z,2.40
2023-01-05T08:49:09.752Z,3.28
2023-01-05T08:51:37.352Z,3.63
2023-01-05T08:54:04.590Z,3.05
2023-01-05T08:56:38.000Z,2.92
2023-01-05T08:59:05.740Z,3.55
2023-01-05T09:01:32.910Z,3.88
2023-01-05T09:04:00.217Z,3.00
2023-01-05T09:06:27.943Z,3.70
2023-01-05T09:08:55.066Z,2.55
2023-01-05T09:11:25.461Z,2.60
2023-01-05T09:13:56.945Z,3.30
2023-01-05T09:19:17.657Z,2.85
2023-01-05T09:21:44.978Z,4.22
2023-01-05T09:24:13.282Z,3.23
2023-01-05T09:26:42.325Z,4.07
2023-01-05T09:29:10.680Z,4.00
2023-01-05T09:31:38.348Z,3.03
2023-01-05T09:34:05.413Z,3.00
2023-01-05T09:36:32.521Z,2.00
2023-01-05T09:38:59.981Z,2.17
2023-01-05T09:41:40.169Z,2.42
2023-01-05T09:44:42.876Z,2.58
2023-01-05T09:47:31.711Z,1.98
2023-01-05T09:49:59.807Z,1.63
2023-01-05T09:52:27.907Z,2.13
2023-01-05T09:54:56.264Z,1.98
2023-01-05T09:57:28.061Z,1.70
2023-01-05T10:00:04.032Z,1.33
2023-01-05T10:02:59.284Z,2.35
2023-01-05T10:05:28.407Z,2.20
2023-01-05T10:08:05.535Z,1.27
2023-01-05T10:11:14.417Z,1.30
2023-01-05T10:14:00.511Z,1.67
2023-01-05T10:16:29.812Z,1.77
2023-01-05T10:18:57.388Z,3.38
2023-01-05T10:22:11.943Z,2.60
2023-01-05T10:25:07.228Z,2.05
2023-01-05T10:27:56.396Z,2.08
2023-01-05T10:31:00.006Z,2.78
2023-01-05T10:34:14.359Z,3.35
2023-01-05T10:37:27.780Z,3.75
2023-01-05T10:40:13.897Z,3.10
2023-01-05T10:43:05.353Z,4.60
2023-01-05T10:45:32.404Z,4.30
2023-01-05T10:48:00.411Z,3.20
2023-01-05T10:50:42.989Z,3.70
2023-01-05T10:53:16.768Z,3.55
2023-01-05T10:56:04.505Z,2.70
2023-01-05T10:58:34.483Z,4.00
2023-01-05T11:01:04.910Z,4.05
2023-01-05T11:06:34.783Z,3.22
2023-01-05T11:09:16.282Z,3.65
2023-01-05T11:12:02.742Z,4.13
2023-01-05T11:14:37.009Z,3.90
2023-01-05T11:17:07.639Z,3.13
2023-01-05T11:19:46.203Z,2.87
2023-01-05T11:22:44.416Z,4.72
2023-01-05T11:25:31.745Z,4.22
2023-01-05T11:28:17.542Z,3.75
2023-01-05T11:31:05.789Z,3.03
2023-01-05T11:33:39.603Z,2.47
2023-01-05T11:36:07.435Z,2.43
2023-01-05T11:38:35.327Z,3.15
2023-01-05T11:41:02.476Z,3.97
2023-01-05T11:43:32.589Z,4.80
2023-01-05T11:46:03.575Z,4.88
2023-01-05T11:48:35.334Z,4.47
2023-01-05T11:51:02.939Z,3.10
2023-01-05T11:53:40.756Z,3.95
2023-01-05T11:56:25.054Z,3.60
2023-01-05T11:58:55.187Z,2.67
2023-01-05T12:01:40.899Z,3.10
2023-01-05T12:04:56.470Z,2.95
2023-01-05T12:07:34.577Z,2.25
2023-01-05T12:10:44.023Z,3.22
2023-01-05T12:13:55.892Z,1.33
2023-01-05T12:16:49.604Z,1.35
2023-01-05T12:20:00.777Z,2.38
2023-01-05T12:23:07.242Z,2.13
2023-01-05T12:25:53.849Z,2.35
2023-01-05T12:29:30.142Z,1.50
2023-01-05T12:35:07.829Z,2.10
2023-01-05T12:37:57.935Z,2.08
2023-01-05T12:40:49.508Z,1.05
2023-01-05T12:43:57.958Z,1.50
2023-01-05T12:46:51.207Z,1.60
2023-01-05T12:49:30.895Z,1.23
2023-01-05T12:52:36.016Z,1.60
2023-01-05T12:55:18.819Z,1.38
2023-01-05T12:57:50.616Z,1.30
2023-01-05T13:00:20.226Z,1.17
2023-01-05T13:03:00.372Z,0.98
2023-01-05T13:05:56.250Z,1.17
2023-01-05T13:08:52.907Z,1.33
2023-01-05T13:11:38.517Z,0.90
2023-01-05T13:14:25.806Z,1.90
2023-01-05T13:17:06.120Z,1.38
2023-01-05T13:19:53.913Z,0.63
2023-01-05T13:22:28.080Z,0.90
2023-01-05T13:25:29.578Z,1.38
2023-01-05T13:27:56.619Z,1.00
2023-01-05T13:30:33.773Z,0.80
2023-01-05T13:33:55.286Z,1.10
2023-01-05T13:36:48.597Z,1.20
2023-01-05T13:39:43.997Z,0.73
2023-01-05T13:42:47.563Z,1.00
2023-01-05T13:45:57.074Z,1.00
2023-01-05T13:49:10.059Z,0.77
2023-01-05T13:52:10.704Z,1.05
2023-01-05T13:55:01.372Z,0.77
2023-01-05T13:57:40.584Z,0.57
2023-01-05T14:00:35.739Z,0.90
2023-01-05T14:03:28.437Z,0.90
2023-01-05T14:05:59.749Z,0.80
2023-01-05T14:08:39.701Z,1.10
2023-01-05T14:11:19.827Z,0.70
2023-01-05T14:13:57.519Z,0.70
2023-01-05T14:16:39.029Z,0.63
2023-01-05T14:19:33.479Z,0.70
2023-01-05T14:22:03.074Z,0.80
2023-01-05T14:27:13.951Z,1.40
2023-01-05T14:29:46.698Z,0.70
2023-01-05T14:32:44.224Z,0.75
2023-01-05T14:35:37.107Z,0.80
2023-01-05T14:38:25.184Z,0.68
2023-01-05T14:40:56.335Z,0.57
2023-01-05T14:43:35.662Z,0.63
2023-01-05T14:46:14.860Z,0.80
2023-01-05T14:49:03.740Z,0.85
2023-01-05T14:51:33.100Z,0.60
2023-01-05T14:54:03.858Z,0.73
2023-01-05T14:56:36.700Z,0.60
2023-01-05T14:59:25.953Z,0.70
2023-01-05T15:04:42.854Z,0.75
2023-01-05T15:07:47.773Z,0.80
2023-01-05T15:10:57.472Z,0.93
2023-01-05T15:14:20.146Z,0.77
2023-01-05T15:17:27.300Z,0.70
2023-01-05T15:20:09.868Z,0.93
2023-01-05T15:22:42.019Z,0.73
2023-01-05T15:25:32.131Z,0.82
2023-01-05T15:28:41.725Z,0.75
2023-01-05T15:31:30.075Z,0.80
2023-01-05T15:34:23.244Z,0.60
2023-01-05T15:37:34.874Z,0.68
2023-01-05T15:42:52.709Z,0.70
2023-01-05T15:45:34.088Z,0.90
2023-01-05T15:48:32.826Z,0.80
2023-01-05T15:51:02.204Z,0.68
2023-01-05T15:53:38.410Z,0.82
2023-01-05T15:56:33.124Z,0.73
2023-01-05T15:59:00.740Z,1.38
2023-01-05T16:01:29.451Z,9.68
2023-01-05T16:04:13.744Z,7.90
2023-01-05T16:06:43.626Z,7.28
2023-01-05T16:09:25.918Z,6.70
2023-01-05T16:12:00.363Z,9.32
2023-01-05T16:14:54.908Z,8.85
2023-01-05T16:17:25.192Z,10.85
2023-01-05T16:20:03.436Z,8.02
2023-01-05T16:22:36.117Z,7.55
2023-01-05T16:25:19.545Z,8.80
2023-01-05T16:27:51.303Z,7.90
2023-01-05T16:30:27.534Z,8.10
2023-01-05T16:33:29.259Z,9.30
2023-01-05T16:36:22.286Z,7.20
2023-01-05T16:38:49.633Z,8.93
2023-01-05T16:41:27.236Z,7.80
2023-01-05T16:44:02.756Z,8.15
2023-01-05T16:46:41.480Z,7.80
2023-01-05T16:49:53.280Z,7.72
2023-01-05T16:52:27.387Z,6.82
2023-01-05T16:55:38.848Z,6.75
2023-01-05T16:58:32.039Z,6.70
2023-01-05T17:01:14.197Z,6.88
2023-01-05T17:03:42.832Z,6.65
2023-01-05T17:06:29.392Z,7.75
2023-01-05T17:09:02.292Z,8.15
2023-01-05T17:11:37.085Z,7.00
2023-01-05T17:14:06.489Z,7.40
2023-01-05T17:16:33.688Z,8.00
2023-01-05T17:19:02.203Z,6.70
2023-01-05T17:21:32.024Z,7.57
2023-01-05T17:24:00.649Z,6.13
2023-01-05T17:26:32.570Z,7.43
2023-01-05T17:31:30.152Z,6.40
2023-01-05T17:33:57.183Z,8.70
2023-01-05T17:36:32.008Z,7.63
2023-01-05T17:39:00.008Z,6.87
2023-01-05T17:41:27.101Z,6.68
2023-01-05T17:43:54.110Z,6.07
2023-01-05T17:46:28.821Z,5.70
2023-01-05T17:48:58.827Z,5.20
2023-01-05T17:51:28.117Z,4.90
2023-01-05T17:53:59.625Z,6.50
2023-01-05T17:56:26.935Z,7.00
2023-01-05T17:58:54.037Z,5.95
2023-01-05T18:01:21.492Z,5.63
2023-01-05T18:03:48.781Z,5.68
2023-01-05T18:06:15.942Z,5.55
2023-01-05T18:11:15.688Z,5.05
2023-01-05T18:13:44.559Z,5.40
2023-01-05T18:16:12.895Z,4.13
2023-01-05T18:18:40.249Z,4.47
2023-01-05T18:21:08.245Z,3.75
2023-01-05T18:23:35.997Z,3.90
2023-01-05T18:26:07.084Z,3.40
2023-01-05T18:28:34.761Z,3.20
2023-01-05T18:31:01.993Z,3.22
2023-01-05T18:33:29.119Z,3.30
2023-01-05T18:38:28.002Z,2.83
2023-01-05T18:40:54.975Z,2.55
2023-01-05T18:43:21.962Z,2.20
2023-01-05T18:45:55.804Z,2.22
2023-01-05T18:48:22.883Z,2.37
2023-01-05T18:50:52.717Z,1.70
2023-01-05T18:53:21.526Z,1.70
2023-01-05T18:55:49.088Z,1.65
2023-01-05T18:58:16.192Z,1.60
2023-01-05T19:00:45.417Z,1.40
2023-01-05T19:03:12.920Z,1.27
2023-01-05T19:05:42.505Z,1.20
2023-01-05T19:08:12.145Z,1.20
2023-01-05T19:10:39.971Z,1.40
2023-01-05T19:13:07.560Z,2.37
2023-01-05T19:15:36.712Z,2.90
2023-01-05T19:18:04.535Z,3.40
2023-01-05T19:20:32.006Z,3.20
2023-01-05T19:23:00.698Z,2.50
2023-01-05T19:25:28.496Z,2.15
2023-01-05T19:27:55.514Z,2.20
2023-01-05T19:30:24.874Z,4.60
2023-01-05T19:32:52.372Z,6.25
2023-01-05T19:35:19.463Z,9.05
2023-01-05T19:37:46.505Z,7.50
2023-01-05T19:40:14.143Z,6.63
2023-01-05T19:42:41.252Z,5.60
2023-01-05T19:45:09.611Z,3.75
2023-01-05T19:47:40.610Z,3.75
2023-01-05T19:50:10.252Z,2.97
2023-01-05T19:52:38.232Z,3.42
2023-01-05T19:55:06.315Z,4.00
2023-01-05T19:57:33.325Z,3.88
2023-01-05T20:00:00.389Z,3.83
2023-01-05T20:02:27.467Z,3.78
2023-01-05T20:04:55.199Z,3.00
2023-01-05T20:07:22.795Z,3.97
2023-01-05T20:09:51.360Z,4.22
2023-01-05T20:12:18.460Z,4.07
2023-01-05T20:14:45.520Z,4.70
2023-01-05T20:17:13.608Z,4.53
2023-01-05T20:19:40.835Z,3.35
2023-01-05T20:22:13.681Z,4.03
2023-01-05T20:24:41.320Z,3.78
2023-01-05T20:27:12.565Z,3.75
2023-01-05T20:29:40.604Z,2.97
2023-01-05T20:32:24.779Z,2.97
2023-01-05T20:34:57.485Z,3.95
2023-01-05T20:37:25.378Z,5.53
2023-01-05T20:40:00.277Z,3.22
2023-01-05T20:42:28.547Z,5.93
2023-01-05T20:44:55.535Z,7.15
2023-01-05T20:47:23.149Z,5.77
2023-01-05T20:49:50.219Z,3.97
2023-01-05T20:52:20.415Z,6.18
2023-01-05T20:54:49.331Z,6.82
2023-01-05T20:57:16.402Z,4.30
2023-01-05T20:59:43.543Z,4.05
2023-01-05T21:02:23.019Z,3.70
2023-01-05T21:04:52.530Z,3.70
2023-01-05T21:07:20.440Z,3.47
2023-01-05T21:09:47.707Z,3.00
2023-01-05T21:12:14.714Z,2.83
2023-01-05T21:14:41.729Z,2.55
2023-01-05T21:17:09.135Z,2.20
2023-01-05T21:19:37.045Z,1.95
2023-01-05T21:22:04.517Z,2.05
2023-01-05T21:24:31.589Z,1.90
2023-01-05T21:26:58.543Z,1.73
2023-01-05T21:29:26.432Z,1.77
2023-01-05T21:31:57.684Z,2.10
2023-01-05T21:34:25.087Z,2.10
2023-01-05T21:36:52.648Z,2.20
2023-01-05T21:39:24.715Z,2.30
2023-01-05T21:42:11.389Z,2.00
2023-01-05T21:44:39.676Z,1.60
2023-01-05T21:47:07.943Z,1.85
2023-01-05T21:49:36.393Z,1.90
2023-01-05T21:52:23.268Z,1.55
2023-01-05T21:55:08.819Z,1.67
2023-01-05T21:57:35.964Z,1.42
2023-01-05T22:00:04.116Z,2.10
2023-01-05T22:02:31.051Z,1.88
2023-01-05T22:04:58.056Z,1.92
2023-01-05T22:07:25.059Z,1.55
2023-01-05T22:09:52.007Z,2.08
2023-01-05T22:12:19.113Z,1.90
2023-01-05T22:14:46.202Z,2.28
2023-01-05T22:17:13.253Z,1.60
2023-01-05T22:19:40.230Z,1.95
2023-01-05T22:22:07.303Z,2.10
2023-01-05T22:24:34.348Z,2.30
2023-01-05T22:27:01.554Z,2.47
2023-01-05T22:29:28.580Z,2.20
2023-01-05T22:31:55.907Z,2.50
2023-01-05T22:34:22.954Z,2.28
2023-01-05T22:36:50.368Z,2.80
2023-01-05T22:39:17.695Z,2.65
2023-01-05T22:41:46.358Z,2.85
2023-01-05T22:44:13.748Z,2.13
2023-01-05T22:46:41.294Z,1.85
2023-01-05T22:49:13.932Z,2.10
2023-01-05T22:51:41.263Z,1.95
2023-01-05T22:54:08.357Z,1.52
2023-01-05T22:56:35.967Z,1.90
2023-01-05T22:59:03.634Z,1.75
2023-01-05T23:01:43.218Z,1.90
2023-01-05T23:04:11.840Z,1.53
2023-01-05T23:06:39.093Z,1.67
2023-01-05T23:09:09.363Z,1.60
2023-01-05T23:11:41.053Z,1.65
2023-01-05T23:14:10.859Z,1.48
2023-01-05T23:16:38.324Z,1.67
2023-01-05T23:19:07.038Z,1.70
2023-01-05T23:21:34.538Z,1.50
2023-01-05T23:24:01.688Z,1.60
2023-01-05T23:26:28.923Z,2.20
2023-01-05T23:28:56.349Z,1.52
2023-01-05T23:31:24.068Z,2.03
2023-01-05T23:33:51.065Z,1.55
2023-01-05T23:36:19.973Z,1.73
2023-01-05T23:38:47.655Z,2.20
2023-01-05T23:41:16.801Z,1.90
2023-01-05T23:43:45.535Z,2.15
2023-01-05T23:46:23.705Z,1.65
2023-01-05T23:48:51.918Z,1.77
2023-01-05T23:51:19.421Z,2.00
2023-01-05T23:53:50.195Z,1.70
2023-01-05T23:56:21.795Z,1.70
2023-01-05T23:58:54.149Z,1.70
